Amelia Island, Florida
Current Conditions -  °F | °C
As of 12:35 AM on Friday 28 Nov 2014 (Local Time) from KFHB Reporting Station
Clear Clear  
Wind Chill: 43°   Ceiling: Unl
Heat Index: 48°   Visibility: 10mi
Dew Point: 34°   Wind: 12mph
Humidity: 57%   Direction: 330°NNW
Pressure: 30.32"   Gusts: NA
Location:  30.6056°N, 81.5268°W
Report Text: KFHB 280535Z AUTO 33010KT 10SM CLR 09/01 A3032 RMK AO1
Loading
Personal Weather Stations






























Interactive Weather Map New forecast layout! Learn more

10-Day Weather Forecast

Advertisements
Track Severe Weather on mobile